Uelen, Russia
Current Conditions -  °F | °C
As of 1:58 AM on Sunday 23 Nov 2014 (Local Time) from PAIW Reporting Station
Clear Clear  
Wind Chill: -1°   Ceiling: Unl
Heat Index: 17°   Visibility: 10mi
Dew Point: 10°   Wind: 24mph
Humidity: 74%   Direction: 70°ENE
Pressure: 29.45"   Gusts: 36mph
Location:  66.16°N, 169.82°W
Report Text: PAIW 221358Z AUTO 07021G31KT 10SM CLR M08/M12 A2945 RMK AO2 PK WND 07031/1350 SLP972 T10831122 FZRANO
Loading
Personal Weather Stations






























Interactive Weather Map New forecast layout! Learn more

10-Day Weather Forecast

Advertisements
Track Severe Weather on mobile